x

9444090 - Port Angeles, Wa (ptaw1) Weather Station

12:36 - Tue 23rd May 2017 All times are PDT. -7 hours from GMT.

  • Wind
    23mph, 29mph gusts
  • Sea Temp 52°f
  • Luft Temp 56°f
  • Sea Pressure 1016.2mb
  • 9444090 - Port Angeles, Wa
  • 9444090 - Port Angeles, Wa

More Historic Weather Station data

Upgrade to MSW Pro to gain access to the past 30 days of data for over 8000 Wavebouys and Weather Stations around the globe.

Join Pro

Comparision Forecast

View Surf forecast
   
Di 05/23 12:36 23 29 mph 1016.2mb 52f 56f
12:30 22 28 mph 1016.4mb 52f 56f
12:24 23 29 mph 1016.4mb 52f 56f
12:18 23 28 mph 1016.5mb 52f 56f
12:12 23 29 mph 1016.5mb 52f 56f
12:06 23 26 mph 1016.5mb 52f 56f
12:00 22 26 mph 1016.5mb 52f 56f
11:36 25 32 mph 1016.8mb 52f 55f
11:30 24 32 mph 1016.8mb 52f 55f
11:24 29 36 mph 1016.7mb 52f 55f
11:18 29 37 mph 1016.6mb 52f 55f
11:12 29 36 mph 1016.6mb 52f 54f
11:06 31 37 mph 1016.6mb 52f 54f
11:00 30 37 mph 1016.6mb 52f 54f
10:36 22 28 mph 1016.8mb 51f 55f
10:30 21 26 mph 1016.8mb 51f 54f
10:24 18 24 mph 1016.8mb 51f 55f
10:18 23 29 mph 1016.8mb 51f 53f
10:12 24 32 mph 1016.9mb 51f 53f
10:06 22 31 mph 1016.8mb 51f 53f
10:00 17 23 mph 1016.7mb 51f 54f
9:36 15 21 mph 1017mb 51f 54f
9:30 17 23 mph 1017mb 51f 53f
9:24 22 25 mph 1017mb 51f 53f
9:18 20 25 mph 1017mb 51f 53f
9:12 20 25 mph 1016.9mb 51f 52f
9:06 23 28 mph 1016.8mb 51f 52f
9:00 21 28 mph 1016.8mb 51f 52f
8:36 21 26 mph 1016.8mb 51f 53f
8:30 18 23 mph 1016.9mb 52f 53f
8:24 20 25 mph 1016.9mb 52f 53f
8:18 20 25 mph 1017mb 52f 53f
8:12 21 29 mph 1017.1mb 52f 53f
8:06 20 25 mph 1017.1mb 52f 54f
8:00 16 25 mph 1017mb 52f 53f
7:36 16 23 mph 1017mb 52f 53f
7:30 16 22 mph 1017.1mb 52f 53f
7:24 21 24 mph 1017mb 52f 53f
7:18 17 23 mph 1017mb 52f 53f
7:12 20 24 mph 1017mb 52f 53f
7:06 17 24 mph 1017.1mb 52f 54f
7:00 15 22 mph 1017.1mb 52f 54f
6:36 17 23 mph 1017.2mb 52f 54f
6:30 16 23 mph 1017.3mb 52f 54f
6:24 18 23 mph 1017.3mb 52f 54f
6:18 16 22 mph 1017.3mb 52f 54f
6:12 13 17 mph 1017.3mb 52f 53f
6:06 10 16 mph 1017.3mb 52f 53f
6:00 11 17 mph 1017.3mb 52f 54f
5:36 3 11 mph 1017.2mb 52f 53f
5:30 10 15 mph 1017.2mb 52f 53f
5:24 3 7 mph 1017.3mb 52f 53f
5:18 5 15 mph 1017.3mb 52f 53f
5:12 6 15 mph 1017.3mb 52f 53f
5:06 11 18 mph 1017.2mb 52f 54f
5:00 11 16 mph 1017.2mb 52f 54f
4:36 9 15 mph 1017mb 52f 54f
4:30 14 17 mph 1017mb 52f 54f
4:24 13 17 mph 1017mb 52f 55f
4:18 8 10 mph 1017mb 52f 55f
4:12 6 7 mph 1017mb 52f 55f
4:06 1 7 mph 1017mb 52f 55f
4:00 5 8 mph 1017mb 52f 55f
3:36 8 14 mph 1017mb 51f 55f
3:30 9 13 mph 1016.9mb 51f 55f
3:24 10 14 mph 1016.8mb 51f 55f
3:18 9 11 mph 1016.8mb 51f 55f
3:12 8 14 mph 1016.7mb 52f 55f
3:06 9 14 mph 1016.7mb 51f 56f
3:00 7 11 mph 1016.7mb 51f 56f
2:36 7 14 mph 1016.8mb 51f 56f
2:30 10 16 mph 1016.7mb 51f 55f
2:24 15 18 mph 1016.7mb 51f 55f
2:18 18 21 mph 1016.5mb 51f 55f
2:12 11 16 mph 1016.6mb 51f 55f
2:06 9 11 mph 1016.6mb 51f 56f
2:00 7 9 mph 1016.6mb 51f 56f
1:36 1 3 mph 1016.9mb 51f 58f
1:30 2 5 mph 1017.1mb 51f 58f
1:24 2 5 mph 1017.2mb 51f 58f
1:18 2 5 mph 1017.2mb 51f 58f
1:12 5 10 mph 1017.3mb 51f 58f
1:06 5 9 mph 1017.3mb 51f 58f
1:00 3 6 mph 1017.3mb 51f 58f
12:36 9 11 mph 1017.3mb 51f 58f
12:30 6 8 mph 1017.2mb 52f 58f
12:24  -  3 mph 1017.2mb 52f 58f
12:18 2 6 mph 1017.3mb 52f 58f
12:12 6 16 mph 1017.4mb 52f 57f
12:06 9 15 mph 1017.4mb 52f 58f
12:00 9 18 mph 1017.4mb 53f 57f
Mo 05/22 11:36 5 7 mph 1017.2mb 53f 58f
11:30 6 13 mph 1017.2mb 53f 58f
11:24 11 14 mph 1017.3mb 53f 58f
11:18 6 8 mph 1017.3mb 53f 58f
11:12 6 8 mph 1017.4mb 53f 58f
11:06 6 11 mph 1017.4mb 53f 58f
11:00 6 9 mph 1017.5mb 53f 58f
10:36 1 2 mph 1017.5mb 53f 59f
10:30 1 3 mph 1017.5mb 53f 59f
10:24 1 3 mph 1017.6mb 52f 60f
10:18 2 3 mph 1017.7mb 52f 60f
10:12 1 3 mph 1017.8mb 52f 61f
10:06 1 3 mph 1017.8mb 52f 61f
10:00 3 3 mph 1017.8mb 52f 60f
9:36 2 5 mph 1018mb 52f 60f
9:30 3 8 mph 1018mb 52f 60f
9:24 8 10 mph 1018.1mb 52f 59f
9:18 7 8 mph 1018.1mb 52f 59f
9:12 7 8 mph 1018mb 53f 59f
9:06 7 8 mph 1017.9mb 53f 60f
9:00 5 6 mph 1017.9mb 53f 61f
8:36 6 9 mph 1018.1mb 53f 60f
8:30 8 11 mph 1018.1mb 53f 60f
8:24 11 14 mph 1018.1mb 53f 61f
8:18 11 14 mph 1018.2mb 53f 62f
8:12 11 13 mph 1018.2mb 52f 61f
8:06 11 13 mph 1018.2mb 52f 62f
8:00 10 11 mph 1018.2mb 51f 63f
7:36 14 17 mph 1018.4mb 51f 61f
7:30 15 17 mph 1018.5mb 51f -
7:24 16 17 mph 1018.5mb 51f -
7:18 15 16 mph 1018.5mb 51f -
7:12 14 17 mph 1018.4mb 51f -
7:06 17 20 mph 1018.4mb 51f -
7:00 16 21 mph 1018.3mb 51f -
6:36 6 11 mph 1018.2mb 52f 73f
6:30 5 5 mph 1018.2mb 52f 72f
6:24 5 5 mph 1018.2mb 52f 72f
6:18 1 2 mph 1018.2mb 52f 74f
6:12  -  1 mph 1018.2mb 52f 75f
6:06 1 2 mph 1018.2mb 52f 75f
6:00  -  2 mph 1018.3mb 52f 73f
5:36 5 5 mph 1018.5mb 52f 69f
5:30 5 6 mph 1018.5mb 52f 70f
5:24 5 5 mph 1018.6mb 52f 71f
5:18 3 5 mph 1018.7mb 52f 70f
5:12 5 6 mph 1018.8mb 52f 70f
5:06 6 6 mph 1018.8mb 52f 71f
5:00 6 6 mph 1018.8mb 52f 71f
4:36 7 8 mph 1019mb 52f 70f
4:30 7 7 mph 1019.1mb 52f 70f
4:24 7 7 mph 1019.2mb 52f 70f
4:18 6 6 mph 1019.3mb 52f 71f
4:12 5 6 mph 1019.4mb 52f 71f
4:06 6 6 mph 1019.4mb 52f 70f
4:00 5 6 mph 1019.5mb 52f 72f
3:36 6 7 mph 1019.9mb 52f 71f
3:30 6 7 mph 1020mb 52f 71f
3:24 6 6 mph 1020.1mb 52f 72f
3:18 5 6 mph 1020.2mb 52f 70f
3:12 5 5 mph 1020.2mb 52f 71f
3:06 3 5 mph 1020.4mb 52f 71f
3:00 3 3 mph 1020.4mb 52f 71f
2:36 2 3 mph 1020.7mb 52f 74f
2:30 2 3 mph 1020.8mb 52f 71f
2:24 2 5 mph 1020.8mb 52f 69f
2:18 3 5 mph 1020.7mb 52f 68f
2:12 5 5 mph 1020.7mb 52f 69f
2:06 5 5 mph 1020.7mb 52f 67f
2:00 3 5 mph 1020.8mb 52f 67f
1:36 5 5 mph 1021mb 52f 67f
1:30 5 5 mph 1021mb 52f 66f
1:24 3 6 mph 1021.1mb 52f 65f
1:18 3 5 mph 1021.2mb 52f 67f
1:12 3 5 mph 1021.2mb 52f 67f
1:06 3 6 mph 1021.2mb 52f 67f
1:00 5 6 mph 1021.2mb 52f 67f
12:54 5 6 mph 1021.2mb 52f 67f
12:48 6 6 mph 1021.2mb 52f 66f
12:36 6 6 mph 1021.2mb 52f 66f
12:30 6 6 mph 1021.3mb 52f 67f
12:24 6 6 mph 1021.4mb 52f 66f
12:18 6 6 mph 1021.4mb 52f 67f
12:12 6 6 mph 1021.6mb 52f 66f
12:06 6 6 mph 1021.7mb 52f 65f
12:00 6 6 mph 1021.8mb 52f 65f
11:54 5 6 mph 1021.8mb 52f 65f
11:48 6 6 mph 1021.9mb 52f 65f
11:36 7 7 mph 1021.9mb 52f 64f
11:30 7 7 mph 1022mb 51f 65f
11:24 7 7 mph 1022mb 51f 64f
11:18 7 8 mph 1022.1mb 51f 65f
11:12 7 7 mph 1022.2mb 51f 65f
11:06 6 7 mph 1022.4mb 51f 66f
11:00 3 5 mph 1022.5mb 51f 67f
10:54 3 5 mph 1022.6mb 51f 67f
10:48 5 6 mph 1022.7mb 51f 67f
10:36 3 3 mph 1022.7mb 52f 66f
10:30 3 3 mph 1022.8mb 52f 66f
10:24 3 3 mph 1022.8mb 52f 67f
10:18 3 3 mph 1022.8mb 52f 67f
10:12 3 3 mph 1022.8mb 52f 68f
10:06 2 6 mph 1022.8mb 52f 70f
10:00 3 5 mph 1022.8mb 52f 69f
9:54 3 3 mph 1022.8mb 52f 67f
9:48 2 5 mph 1022.8mb 52f 66f
9:36 3 5 mph 1022.8mb 52f 65f
9:30 2 2 mph 1022.9mb 51f 66f
9:24 1 2 mph 1022.8mb 51f 68f
9:18 1 3 mph 1022.9mb 51f 67f
9:12  -  2 mph 1022.9mb 52f 65f
9:06  -  1 mph 1022.9mb 52f 65f
9:00 1 2 mph 1022.8mb 52f 62f
8:54 2 3 mph 1022.8mb 52f 60f
8:48 2 3 mph 1022.8mb 52f 61f
8:36 1 6 mph 1022.7mb 52f 59f
8:30 5 6 mph 1022.6mb 52f 58f
8:24 2 3 mph 1022.5mb 52f 60f
8:18  -  2 mph 1022.4mb 52f 64f
8:12 1 3 mph 1022.3mb 52f 65f
8:06 2 3 mph 1022.3mb 52f 65f
8:00 2 5 mph 1022.3mb 52f 64f
7:54 2 3 mph 1022.2mb 52f 63f
7:48 2 5 mph 1022.1mb 52f 64f
7:36 3 5 mph 1022.2mb 52f 61f
7:30 2 5 mph 1022.2mb 52f 60f
7:24 1 3 mph 1022.2mb 52f 58f
7:18 2 3 mph 1022.2mb 52f 58f
7:12 2 2 mph 1022.3mb 52f 58f
7:06 2 5 mph 1022.2mb 52f 59f
7:00 2 3 mph 1022.2mb 52f 58f
6:54 2 5 mph 1022.2mb 52f 57f
6:48 2 5 mph 1022.3mb 52f 58f
5:54 2 3 mph 1022.4mb 52f 52f
5:48 2 3 mph 1022.4mb 52f 51f
5:36 2 3 mph 1022.3mb 52f 51f
5:30 3 3 mph 1022.2mb 52f 51f
5:24 2 3 mph 1022.1mb 52f 51f
5:18 2 3 mph 1022.2mb 52f 51f
5:12 2 2 mph 1022.2mb 52f 52f
5:06 2 3 mph 1022.1mb 52f 52f
5:00 3 5 mph 1022.1mb 52f 52f
4:54 3 5 mph 1022.1mb 52f 52f
4:48 2 2 mph 1022.1mb 52f 52f
4:36 1 2 mph 1022mb 52f 52f
4:30  -  3 mph 1022mb 52f 53f
4:24 1 3 mph 1022mb 52f 53f
4:18 2 3 mph 1022mb 52f 52f
4:12 2 5 mph 1022mb 52f 52f
4:06 3 5 mph 1022mb 52f 52f
4:00 3 5 mph 1021.9mb 52f 52f
3:54 2 5 mph 1022.1mb 52f 52f
3:48 2 3 mph 1022.1mb 52f 52f
3:36 2 5 mph 1022.2mb 52f 52f
3:30 3 3 mph 1022.3mb 52f 53f
3:24 3 5 mph 1022.3mb 52f 52f
3:18 3 6 mph 1022.3mb 52f 52f
3:12 5 6 mph 1022.4mb 52f 52f
3:06 2 5 mph 1022.4mb 52f 52f
3:00 2 5 mph 1022.5mb 52f 51f
2:54  -  2 mph 1022.5mb 52f 51f
2:48 2 5 mph 1022.5mb 52f 51f
2:36 1 2 mph 1022.4mb 52f 51f
2:30 2 2 mph 1022.3mb 52f 51f
2:24 2 6 mph 1022.3mb 52f 51f
2:18 5 6 mph 1022.3mb 52f 52f
2:12 2 3 mph 1022.3mb 52f 52f
2:06 2 2 mph 1022.3mb 52f 52f
2:00 2 2 mph 1022.3mb 52f 52f
1:54 2 3 mph 1022.3mb 52f 53f
1:48 3 3 mph 1022.3mb 52f 53f
1:36 1 2 mph 1022.4mb 52f 53f
1:30 2 2 mph 1022.4mb 52f 53f
1:24 2 3 mph 1022.3mb 52f 54f
1:18 3 5 mph 1022.3mb 52f 55f
1:12 1 2 mph 1022.3mb 52f 54f
1:06 3 6 mph 1022.3mb 52f 55f
1:00 6 8 mph 1022.2mb 52f 55f
12:54 6 8 mph 1022.2mb 52f 54f
12:48 8 10 mph 1022.1mb 52f 54f
12:36 8 9 mph 1022.1mb 52f 55f
12:30 5 7 mph 1022.1mb 52f 56f
12:24 8 11 mph 1022.1mb 52f 55f
12:18 6 9 mph 1022.2mb 52f 56f
12:12 3 5 mph 1022.1mb 52f 57f
12:06 3 3 mph 1022mb 52f 56f
12:00 5 6 mph 1022mb 52f 56f
So 05/21 11:54 2 6 mph 1022mb 52f 55f
11:48 3 6 mph 1022mb 52f 55f
11:36 2 3 mph 1022mb 53f 55f
11:30 1 3 mph 1022.2mb 53f 56f
11:24 2 3 mph 1022.2mb 53f 57f
11:18 1 2 mph 1022.3mb 53f 57f
11:12  -  6 mph 1022.5mb 53f 57f
11:06 7 8 mph 1022.5mb 53f 56f
11:00 7 7 mph 1022.6mb 53f 56f
10:54 3 5 mph 1022.7mb 53f 56f
10:48 3 5 mph 1022.7mb 53f 57f
10:36 1 3 mph 1022.7mb 53f 57f
10:30  -  3 mph 1022.7mb 53f 58f
10:24 2 3 mph 1022.6mb 53f 58f
10:18 3 5 mph 1022.5mb 53f 57f
10:12 3 6 mph 1022.5mb 53f 57f
10:06 2 3 mph 1022.5mb 53f 56f
10:00 3 5 mph 1022.5mb 53f 57f
9:54 3 6 mph 1022.5mb 53f 57f
9:48 5 8 mph 1022.6mb 53f 57f
9:36 3 7 mph 1022.4mb 53f 59f
9:30 7 8 mph 1022.3mb 53f 59f
9:24 8 9 mph 1022.3mb 53f 59f
9:18 8 10 mph 1022.4mb 53f 59f
9:12 6 8 mph 1022.5mb 53f 58f
9:06 3 6 mph 1022.6mb 53f 59f
9:00 3 5 mph 1022.7mb 53f 59f
8:54 2 6 mph 1022.7mb 53f 59f
8:48 7 14 mph 1022.7mb 53f 58f
8:36 9 11 mph 1022.5mb 53f 56f
8:30 9 15 mph 1022.4mb 53f 56f
8:24 13 14 mph 1022.4mb 53f 57f
8:18 9 11 mph 1022.2mb 53f 57f
8:12 10 11 mph 1022.3mb 53f 56f
8:06 9 13 mph 1022.2mb 53f 56f
8:00 11 13 mph 1022.3mb 53f 56f
7:54 13 15 mph 1022.3mb 53f 56f
7:48 14 16 mph 1022.3mb 53f 56f
7:36 15 18 mph 1022.4mb 53f 56f
7:30 7 9 mph 1022.4mb 53f 59f
7:24 9 9 mph 1022.3mb 53f 59f
7:18 9 10 mph 1022.3mb 53f 59f
7:12 8 9 mph 1022.2mb 53f 59f
7:06 7 9 mph 1022.2mb 53f 59f
7:00 6 9 mph 1022.2mb 53f 59f
6:54 8 9 mph 1022.3mb 53f 58f
6:48 9 10 mph 1022.3mb 53f 58f
6:36 7 9 mph 1022.4mb 53f 57f
6:30 8 9 mph 1022.4mb 53f 58f
6:24 7 9 mph 1022.5mb 53f 57f
6:18 8 9 mph 1022.6mb 53f 57f
6:12 9 11 mph 1022.7mb 52f 58f
6:06 10 11 mph 1022.7mb 52f 57f
6:00 10 13 mph 1022.8mb 52f 57f
5:54 11 13 mph 1022.8mb 52f 57f
5:48 9 10 mph 1022.9mb 52f 57f
5:36 8 10 mph 1023mb 52f -
5:30 8 14 mph 1023.1mb 52f -
5:24 11 14 mph 1023.2mb 52f -
5:18 14 16 mph 1023.2mb 52f -
5:12 14 17 mph 1023.2mb 52f -
5:06 15 17 mph 1023.2mb 52f -
5:00 15 16 mph 1023.2mb 52f -
4:54 11 14 mph 1023.2mb 52f -
4:48 10 13 mph 1023.2mb 52f -
4:36 8 9 mph 1023.3mb 52f -
4:30 7 8 mph 1023.3mb 53f -
4:24 8 9 mph 1023.4mb 53f -
4:18 9 10 mph 1023.5mb 53f -
4:12 8 10 mph 1023.5mb 53f -
4:06 8 9 mph 1023.6mb 53f -
4:00 5 8 mph 1023.6mb 53f -
3:54 6 10 mph 1023.6mb 53f -
3:48 1 3 mph 1023.6mb 53f 73f
3:36 1 2 mph 1023.6mb 53f 75f
3:30 3 5 mph 1023.7mb 52f 74f
3:24 2 5 mph 1023.6mb 52f 73f
3:18 2 3 mph 1023.6mb 52f 73f
3:12 2 3 mph 1023.6mb 52f 70f
3:06 3 3 mph 1023.7mb 52f 69f
3:00 2 2 mph 1023.8mb 52f 69f
2:54 2 2 mph 1023.9mb 52f 68f
2:48 2 2 mph 1024mb 52f 68f
2:36  -  2 mph 1024.1mb 52f 68f
2:30  -  3 mph 1024.2mb 52f 66f
2:24 1 2 mph 1024.2mb 52f 69f
2:18 2 2 mph 1024.3mb 52f 67f
2:12 2 3 mph 1024.3mb 52f 69f
2:06 1 2 mph 1024.3mb 52f 69f
2:00 1 2 mph 1024.4mb 51f 69f
1:54 2 2 mph 1024.4mb 51f 68f
1:48 2 3 mph 1024.5mb 51f 66f
1:36 2 3 mph 1024.5mb 51f 61f
1:30 2 3 mph 1024.6mb 51f 60f
1:24 2 3 mph 1024.6mb 51f 60f
1:18 3 5 mph 1024.6mb 51f 59f
1:12 5 5 mph 1024.7mb 51f 60f
1:06 3 5 mph 1024.7mb 51f 59f
1:00 5 6 mph 1024.8mb 51f 60f
12:54 6 6 mph 1024.8mb 51f 60f
12:48 5 6 mph 1024.8mb 51f 62f
12:36 5 6 mph 1024.8mb 51f 60f
12:30 5 6 mph 1024.9mb 51f 61f
12:24 2 3 mph 1024.9mb 51f 60f
12:18 3 5 mph 1024.9mb 51f 59f
12:12 3 3 mph 1025mb 51f 59f
12:06 2 3 mph 1025mb 51f 57f
12:00 3 5 mph 1025mb 51f 57f
11:54 3 5 mph 1025mb 51f 57f
11:48 2 3 mph 1025mb 51f 58f
11:36 2 2 mph 1024.9mb 52f 57f
11:30 1 3 mph 1025mb 52f 58f
11:24 2 3 mph 1025mb 52f 57f
11:18 2 3 mph 1025.1mb 52f 56f
11:12 2 3 mph 1025.2mb 52f 55f
11:06 2 3 mph 1025.2mb 52f 55f
11:00 2 3 mph 1025.2mb 52f 51f
10:54 2 3 mph 1025.3mb 51f 50f
10:48 3 5 mph 1025.3mb 51f 50f
10:36 2 3 mph 1025.3mb 51f 53f
10:30 3 5 mph 1025.3mb 51f 51f
10:24 5 5 mph 1025.3mb 51f 50f
10:18 3 6 mph 1025.3mb 51f 50f
10:12 5 6 mph 1025.3mb 51f 50f
10:06 5 7 mph 1025.3mb 51f 51f
10:00 3 5 mph 1025.3mb 51f 51f
9:54 3 5 mph 1025.3mb 51f 50f
9:36 3 6 mph 1025.4mb 51f 50f
9:30 3 8 mph 1025.4mb 51f 50f
9:24 6 9 mph 1025.4mb 51f 50f
9:18 8 11 mph 1025.4mb 51f 49f
9:12 8 11 mph 1025.4mb 51f 49f
9:06 10 13 mph 1025.3mb 51f 49f
9:00 10 13 mph 1025.3mb 51f 49f
8:54 9 13 mph 1025.2mb 51f 49f
8:48 11 14 mph 1025.2mb 51f 49f
8:36 8 11 mph 1025.1mb 52f 49f
8:30 8 9 mph 1025.1mb 52f 49f
8:24 5 7 mph 1025.1mb 52f 49f
8:18 2 5 mph 1025.1mb 52f 49f
8:12 2 3 mph 1025.1mb 52f 49f
8:06 1 2 mph 1025.1mb 52f 50f
8:00  -  2 mph 1025mb 52f 50f
7:54 1 2 mph 1025mb 52f 50f
7:48 2 3 mph 1025mb 52f 50f
7:36 2 3 mph 1024.9mb 52f 50f
7:30 2 3 mph 1024.9mb 52f 50f
7:24 2 3 mph 1024.9mb 52f 50f
7:18 1 2 mph 1024.8mb 52f 49f
7:12 3 5 mph 1024.8mb 52f 49f
7:06 3 5 mph 1024.7mb 52f 49f
7:00 3 3 mph 1024.7mb 52f 48f
6:54 2 3 mph 1024.7mb 52f 48f
6:36 6 7 mph 1024.7mb 52f 48f
6:30 5 5 mph 1024.8mb 52f 48f
6:24 3 5 mph 1024.8mb 52f 48f
6:18 5 6 mph 1024.8mb 52f 48f
6:12 3 6 mph 1024.8mb 52f 48f
6:06 3 6 mph 1024.8mb 52f 48f
6:00 3 5 mph 1024.7mb 52f 49f
5:54 2 3 mph 1024.8mb 53f 49f
5:48 3 6 mph 1024.8mb 53f 49f
5:36  -  mph 1024.7mb 53f 49f
5:30  -  mph 1024.7mb 52f 49f
5:24  -  mph 1024.6mb 52f 49f
5:18  -  mph 1024.5mb 52f 49f
5:12  -  mph 1024.5mb 52f 49f
5:06  -  mph 1024.4mb 52f 49f
5:00  -  mph 1024.4mb 52f 49f
4:54  -  mph 1024.4mb 52f 49f
4:48  -  mph 1024.4mb 52f 49f
4:36 2 3 mph 1024.4mb 53f 49f
4:30 2 3 mph 1024.4mb 53f 49f
4:24 1 3 mph 1024.4mb 53f 49f
4:18 2 3 mph 1024.5mb 53f 49f
4:12 3 3 mph 1024.5mb 53f 49f
4:06 3 5 mph 1024.5mb 53f 49f
4:00 3 5 mph 1024.5mb 53f 49f
3:54 3 5 mph 1024.4mb 53f 49f
3:48 1 3 mph 1024.4mb 53f 49f
3:36 2 5 mph 1024.3mb 53f 50f
3:30 3 5 mph 1024.3mb 53f 49f
3:24 3 5 mph 1024.3mb 53f 49f
3:18 2 5 mph 1024.2mb 53f 49f
3:12 3 6 mph 1024.2mb 53f 50f
3:06  -  5 mph 1024.2mb 53f 50f
3:00 5 6 mph 1024.2mb 53f 50f
2:54 6 8 mph 1024.2mb 53f 50f
2:48 6 9 mph 1024.2mb 53f 50f
2:36 8 13 mph 1024mb 53f 50f
2:30 9 11 mph 1024.1mb 53f 50f
2:24 7 9 mph 1023.9mb 53f 50f
2:18 5 6 mph 1023.9mb 53f 50f
2:12 5 7 mph 1023.8mb 53f 50f
2:06 6 13 mph 1024mb 53f 50f
2:00 10 13 mph 1023.9mb 53f 50f
1:54 6 8 mph 1023.8mb 53f 50f
1:48 5 9 mph 1023.9mb 53f 50f
1:36 10 14 mph 1023.9mb 53f 51f
1:30 11 16 mph 1023.7mb 52f 51f
1:24 16 22 mph 1023.8mb 52f 51f
1:18 11 15 mph 1023.6mb 52f 51f
1:12 7 9 mph 1023.3mb 52f 51f
1:06 5 6 mph 1023.6mb 52f 51f
1:00 3 3 mph 1023.6mb 52f 51f
12:54 2 3 mph 1023.5mb 52f 51f
12:36 5 6 mph 1023.6mb 52f 51f
12:30 6 7 mph 1023.6mb 52f 51f
12:24 6 7 mph 1023.6mb 52f 51f
12:18 5 7 mph 1023.6mb 52f 51f
12:12 6 7 mph 1023.7mb 52f 51f
12:06 7 8 mph 1023.7mb 52f 51f
12:00 6 8 mph 1023.8mb 52f 51f
Sa 05/20 11:54 7 8 mph 1023.8mb 52f 51f
11:48 6 9 mph 1023.8mb 52f 51f
11:36 7 10 mph 1023.8mb 52f 51f
11:30 7 9 mph 1023.8mb 52f 51f
11:24 6 9 mph 1023.9mb 52f 51f
11:18 6 9 mph 1023.8mb 52f 51f
11:12 7 9 mph 1023.8mb 53f 51f
11:06 6 11 mph 1023.8mb 53f 51f
11:00 7 10 mph 1023.7mb 53f 51f
10:54 8 13 mph 1023.8mb 53f 51f
10:48 8 13 mph 1023.7mb 53f 51f
10:36 11 15 mph 1023.6mb 53f 51f
10:30 10 14 mph 1023.5mb 53f 51f
10:24 11 14 mph 1023.4mb 53f 51f
10:18 10 15 mph 1023.4mb 53f 51f
10:12 10 15 mph 1023.4mb 53f 51f
10:06 11 16 mph 1023.3mb 53f 51f
10:00 13 15 mph 1023.2mb 53f 51f
9:54 13 15 mph 1023.2mb 53f 51f
9:48 14 15 mph 1023.1mb 53f 51f
9:36 10 13 mph 1023mb 53f 51f
9:30 10 11 mph 1023mb 53f 52f
9:24 8 13 mph 1023mb 53f 52f
9:18 13 14 mph 1022.9mb 53f 52f
9:12 13 15 mph 1022.9mb 53f 52f
9:06 14 16 mph 1022.8mb 53f 51f
9:00 13 16 mph 1022.9mb 53f 51f
8:54 15 17 mph 1022.8mb 53f 51f
8:48 14 17 mph 1022.7mb 53f 52f
8:36 14 15 mph 1022.6mb 53f 52f
8:30 13 14 mph 1022.6mb 53f 52f
8:24 11 15 mph 1022.5mb 53f 52f
8:18 13 15 mph 1022.5mb 53f 53f
8:12 11 14 mph 1022.5mb 53f 53f
8:06 10 15 mph 1022.5mb 53f 53f
8:00 10 14 mph 1022.4mb 53f 53f
7:54 9 14 mph 1022.4mb 53f 53f
7:48 11 14 mph 1022.3mb 53f 53f
7:36 9 14 mph 1022.4mb 53f 54f
7:30 11 14 mph 1022.4mb 53f 54f
7:24 9 13 mph 1022.3mb 53f 54f
7:18 11 18 mph 1022.3mb 53f 54f
7:12 16 18 mph 1022.3mb 53f 54f
7:06 15 17 mph 1022.2mb 53f 53f
7:00 16 20 mph 1022.2mb 53f 53f
6:54 16 18 mph 1022.2mb 53f 53f
6:48 17 20 mph 1022.2mb 53f 53f
6:36 16 20 mph 1022.3mb 53f 53f
6:30 17 20 mph 1022.3mb 53f 54f
6:24 14 16 mph 1022.3mb 53f 54f
6:18 16 18 mph 1022.3mb 53f 53f
6:12 17 20 mph 1022.3mb 53f 53f
6:06 17 20 mph 1022.3mb 53f 54f
6:00 16 18 mph 1022.3mb 53f 53f
5:54 17 20 mph 1022.3mb 53f 53f
5:48 14 18 mph 1022.3mb 53f 54f
5:36 17 20 mph 1022.4mb 53f 52f
5:30 15 20 mph 1022.4mb 53f 53f
5:24 17 21 mph 1022.5mb 53f 53f
5:18 17 21 mph 1022.5mb 53f 53f
5:12 17 23 mph 1022.5mb 53f 53f
5:06 16 23 mph 1022.4mb 53f 53f
5:00 20 24 mph 1022.4mb 53f 53f
4:54 17 23 mph 1022.5mb 53f 53f
4:48 18 24 mph 1022.5mb 53f 53f
4:36 16 20 mph 1022.6mb 53f 55f
4:30 17 20 mph 1022.7mb 53f 54f
4:24 18 21 mph 1022.7mb 53f 54f
4:18 17 20 mph 1022.7mb 53f 54f
4:12 18 21 mph 1022.7mb 53f 54f
4:06 17 21 mph 1022.8mb 53f 54f
4:00 17 21 mph 1022.9mb 53f 53f
3:54 15 22 mph 1023mb 53f 53f
3:48 17 22 mph 1023mb 52f 53f
3:36 16 23 mph 1023.1mb 52f 54f
3:30 21 25 mph 1023.2mb 52f 54f
3:24 17 23 mph 1023.2mb 52f 55f
3:18 18 22 mph 1023.2mb 52f 55f
3:12 16 20 mph 1023.1mb 52f 56f
3:06 15 17 mph 1023.1mb 52f 56f
3:00 14 17 mph 1023.1mb 52f 56f
2:54 15 18 mph 1023.1mb 52f 56f
2:48 15 20 mph 1023.2mb 52f 55f
2:36 15 18 mph 1023.2mb 52f 55f
2:30 16 18 mph 1023.2mb 52f 55f
2:24 15 18 mph 1023.2mb 52f 54f
2:18 15 20 mph 1023.2mb 52f 54f
2:12 16 18 mph 1023.3mb 52f 53f
2:06 16 20 mph 1023.3mb 52f 53f
2:00 17 20 mph 1023.3mb 52f 53f
1:54 18 21 mph 1023.3mb 52f 53f
1:48 20 23 mph 1023.3mb 52f 52f
1:36 20 22 mph 1023.3mb 52f 52f
1:30 16 21 mph 1023.3mb 52f 53f
1:24 16 21 mph 1023.3mb 52f 53f
1:18 16 21 mph 1023.2mb 52f 53f
1:12 16 21 mph 1023.2mb 51f 53f
1:06 17 20 mph 1023.2mb 51f 53f
1:00 15 18 mph 1023.1mb 51f 53f
12:54 13 15 mph 1023.1mb 51f 54f
12:48 6 9 mph 1023mb 51f 54f
12:36 6 7 mph 1022.9mb 51f 55f
12:30 6 7 mph 1022.9mb 52f 54f
12:24 6 7 mph 1022.9mb 52f 54f
12:18 6 7 mph 1022.9mb 52f 54f
12:12 6 7 mph 1022.9mb 52f 54f
12:06 6 7 mph 1023mb 52f 54f
12:00 6 7 mph 1023.1mb 52f 54f
11:54 6 8 mph 1023.1mb 52f 54f
11:48 5 7 mph 1023.2mb 52f 54f
11:36 5 8 mph 1023.2mb 51f 54f
11:30 6 9 mph 1023.3mb 51f 53f
11:24 6 9 mph 1023.2mb 51f 53f
11:18 7 9 mph 1023.3mb 51f 53f
11:12 7 9 mph 1023.2mb 51f 53f
11:06 6 10 mph 1023.2mb 51f 53f
11:00 7 11 mph 1023.2mb 51f 53f
10:54 6 10 mph 1023.2mb 51f 53f
10:48 7 10 mph 1023.1mb 51f 53f
10:36 10 14 mph 1023.1mb 51f 53f
10:30 11 13 mph 1023.2mb 51f 53f
10:24 11 14 mph 1023.1mb 51f 53f
10:18 11 14 mph 1023.1mb 51f 53f
10:12 14 17 mph 1023.1mb 51f 53f
10:06 14 17 mph 1023mb 51f 52f
10:00 14 16 mph 1023mb 51f 52f
9:54 13 15 mph 1023mb 51f 52f
9:48 13 15 mph 1023mb 51f 52f
9:36 14 16 mph 1022.9mb 51f 52f
9:30 11 15 mph 1022.9mb 51f 52f
9:24 14 16 mph 1022.9mb 51f 52f
9:18 14 17 mph 1022.8mb 51f 52f
9:12 15 17 mph 1022.8mb 51f 52f
9:06 15 18 mph 1022.8mb 51f 52f
9:00 16 18 mph 1022.8mb 51f 52f
8:54 15 18 mph 1022.8mb 51f 52f
8:48 15 18 mph 1022.7mb 51f 52f
8:36 15 18 mph 1022.7mb 51f 52f
8:30 14 18 mph 1022.7mb 51f 52f
8:24 13 18 mph 1022.7mb 51f 52f
8:18 15 18 mph 1022.6mb 51f 53f
8:12 14 16 mph 1022.5mb 51f 52f
8:06 13 15 mph 1022.5mb 51f 52f
8:00 13 15 mph 1022.4mb 51f 52f
7:54 11 14 mph 1022.4mb 51f 53f
7:48 11 14 mph 1022.3mb 51f 53f
7:36 10 11 mph 1022.2mb 51f 53f
7:30 10 13 mph 1022.1mb 51f 53f
7:24 9 11 mph 1022.1mb 51f 53f
7:18 10 11 mph 1022mb 51f 53f
7:12 9 10 mph 1022mb 51f 53f
7:06 7 9 mph 1022mb 51f 53f
7:00 7 8 mph 1022mb 51f 53f
6:54 6 8 mph 1022.1mb 51f 53f
6:48 6 9 mph 1022mb 51f 53f
6:36 5 6 mph 1021.9mb 51f 53f
6:30 5 7 mph 1021.9mb 51f 53f
6:24 5 9 mph 1021.9mb 51f 53f
6:18 7 9 mph 1021.9mb 51f 53f
6:12 7 14 mph 1021.8mb 50f 53f
6:06 8 13 mph 1021.7mb 50f 53f
6:00 8 11 mph 1021.7mb 50f 53f
5:54 9 13 mph 1021.5mb 50f 53f
5:48 10 14 mph 1021.5mb 50f 53f
5:36 7 11 mph 1021.3mb 50f 53f
5:30 7 10 mph 1021.2mb 50f 53f
5:24 7 9 mph 1021.1mb 50f 53f
5:18 7 8 mph 1021mb 50f 53f
5:12 6 8 mph 1021mb 51f 53f
5:06 5 8 mph 1021mb 51f 53f
5:00 3 8 mph 1021mb 51f 53f
4:54 3 6 mph 1020.9mb 51f 53f
4:48 3 6 mph 1020.9mb 51f 53f
4:36 3 6 mph 1021mb 51f 53f
4:30 6 9 mph 1021mb 51f 53f
4:24 7 9 mph 1021mb 51f 53f
4:18 7 9 mph 1021mb 51f 53f
4:12 6 9 mph 1021.1mb 51f 53f
4:06 5 7 mph 1021.1mb 51f 53f
4:00 6 8 mph 1021.1mb 51f 53f
3:54 5 7 mph 1021.1mb 51f 53f
3:48 5 8 mph 1021mb 51f 53f
3:36 3 7 mph 1020.9mb 51f 54f
3:30 6 11 mph 1020.8mb 51f 54f
3:24 5 13 mph 1020.8mb 51f 54f
3:18 8 11 mph 1020.8mb 51f 53f
3:12 6 11 mph 1020.8mb 50f 53f
3:06 5 13 mph 1020.7mb 50f 53f
3:00 7 11 mph 1020.7mb 50f 53f
2:54 8 14 mph 1020.6mb 50f 53f
2:48 9 13 mph 1020.6mb 50f 53f
2:36 7 9 mph 1020.5mb 50f 53f
2:30 5 7 mph 1020.3mb 50f 53f
2:24 7 9 mph 1020.2mb 50f 53f
2:18 5 7 mph 1020.3mb 50f 53f
2:12 5 8 mph 1020.3mb 51f 53f
2:06 3 7 mph 1020.2mb 51f 53f
2:00 6 9 mph 1020.3mb 52f 53f
1:54 6 9 mph 1020.3mb 52f 53f
1:48 6 9 mph 1020.4mb 52f 53f
1:36 6 8 mph 1020.4mb 52f 53f
1:30 6 8 mph 1020.3mb 52f 53f
1:24 6 9 mph 1020.2mb 52f 54f
1:18 9 15 mph 1020.2mb 52f 53f
1:12 14 17 mph 1020.2mb 52f 53f
1:06 13 15 mph 1020.2mb 52f 53f
1:00 13 15 mph 1020.2mb 51f 53f
12:54 13 15 mph 1020.2mb 51f 53f
12:48 11 15 mph 1020.2mb 51f 53f
12:36 10 15 mph 1020.3mb 51f 53f
12:30 10 14 mph 1020.3mb 51f 53f
12:24 13 15 mph 1020.2mb 50f 53f
12:18 11 16 mph 1020.2mb 50f 53f
12:12 13 15 mph 1020.2mb 50f 53f
12:06 11 14 mph 1020.1mb 50f 53f
12:00 11 13 mph 1020.2mb 50f 53f
Fr 05/19 11:54 9 11 mph 1020.2mb 50f 53f
11:48 8 9 mph 1020.2mb 50f 53f
11:36 9 14 mph 1020.1mb 50f 53f
11:30 11 14 mph 1020.2mb 50f 54f
11:24 13 15 mph 1020.2mb 50f 54f
11:18 13 14 mph 1020.2mb 50f 54f
11:12 9 11 mph 1020.1mb 50f 54f
11:06 9 11 mph 1020.1mb 50f 55f
11:00 7 13 mph 1020mb 50f 56f
10:54 9 11 mph 1020mb 50f 56f
10:48 7 10 mph 1020mb 50f 56f
10:36 10 15 mph 1020.1mb 52f 56f
10:30 10 14 mph 1020.1mb 52f 56f
10:24 10 14 mph 1020.1mb 52f 56f
10:18 9 11 mph 1020.2mb 52f 56f
10:12 8 10 mph 1020.2mb 52f 57f
10:06 7 9 mph 1020.2mb 52f 57f
10:00 6 8 mph 1020.2mb 53f 57f
9:54 7 13 mph 1020.2mb 53f 57f
9:48 9 13 mph 1020.2mb 53f 57f
9:36 10 11 mph 1020.2mb 53f 57f
9:30 7 8 mph 1020.1mb 53f 57f
9:24 8 10 mph 1020mb 53f 57f
9:18 7 10 mph 1020mb 53f 57f
9:12 9 13 mph 1019.9mb 53f 57f
9:06 9 13 mph 1019.9mb 53f 57f
9:00 9 13 mph 1019.9mb 53f 57f
8:54 8 10 mph 1019.8mb 53f 57f
8:48 8 13 mph 1019.7mb 53f 57f